Aérodrome :
LOGIN :

S'inscrire | Disclaimer

   EN    FR    IT 

 










Légende :    VFR   VFR Marginal   IFR   IFR Intensif   IFR Très Intensif
Visi : 
Plafond : 
>= 8 km
>= 3000ft
5 à 8 km
1000 à 3000 ft
1500m à 5 km
500 à 1000 ft
800 à 1500m
200 à 500 ft
< 800m
< 200 ft
Symboles :   Orages  Brouillard  Fortes neiges  Fortes précipitations  Vent > 20 kt
SIGMETs :   Divers  Orages  Givrage  Turbulence  Onde Orograph.  Cendres Volcan.







- Altitude de l'aérodrome : 1249 ft


ETSN - Neuburg AB

DERNIER METAR :
  • 281120Z 25009KT 9999 FEW030 BKN200 24/13 Q1003 BLU+

METARs EXPIRÉS :
  • 281020Z 24004KT 9999 -RA FEW030 SCT080 23/15 Q1003 RESHRA BLU+
  • 280932Z 36005KT 9999 -RA FEW020 SCT080 BKN120 21/16 Q1003 BLU
  • 280926Z 27007KT 6000 SHRA FEW020 SCT080 BKN120 21/15 Q1003 WHT

TAF TAF ETSN
Valide du 28 à 11h jusqu'au 28 à 20h UTC


281020Z 2811/2820 26005KT 9999 NSW FEW030 SCT080
BECMG 2818/2820 23007KT 8000 -RA SCT050 BKN120 BY ETGL
Pas de NOTAMs connus pour ce terrain.
2 SIGMETs publiés pour la FIR München (EDMM) :
 
Orages noyés dans la masse avec grêle
EDMM SIGMET 3 VALID 281200/281330 EDZM
EDMM MUNCHEN FIR EMBD TSGR OBS APRX 20NM WID LINE BTN N5150 E01201 - N5100 E01330 TOP FL400 MOV N NC=
Orages noyés dans la masse
EDMM SIGMET 2 VALID 281004/281200 EDZM
EDMM MUNCHEN FIR EMBD TS OBS WI N5155 E01209 - N5130 E01330 - N5030 E01245 - N5100 E01040 - N5123 E01027 - N5152 E01112 - N5155 E01209 TOP FL400 MOV N NC=



MET'MAP, la Météo Aéronautique d'un coup d'oeil ! - Copyright ORBIFLY Décembre 2007 - Disclaimer

ORBIFLY MET'MAP TEAM :

Programmation & Développement : Alexandra Zaïnal
Conception & Développement : Baudouin d'Aumeries
Co-Programmation & Développement : Marc-Olivier Méhu
Soutien technique & logistique : Manuel Goepfert

Contact : metmap@orbifly.com




SOURCES & CREDITS :

   NOAA